createdAt,value
2022-09-15T00:01:03.262Z,3.36
2022-09-15T00:03:30.924Z,3.70
2022-09-15T00:05:58.544Z,3.81
2022-09-15T00:08:26.174Z,3.51
2022-09-15T00:10:58.347Z,3.49
2022-09-15T00:13:26.053Z,3.62
2022-09-15T00:15:54.241Z,3.80
2022-09-15T00:18:21.713Z,3.95
2022-09-15T00:20:49.453Z,4.08
2022-09-15T00:23:17.554Z,3.97
2022-09-15T00:25:47.226Z,3.95
2022-09-15T00:28:15.956Z,4.13
2022-09-15T00:30:45.017Z,4.02
2022-09-15T00:33:13.756Z,4.08
2022-09-15T00:35:42.627Z,3.89
2022-09-15T00:38:11.301Z,3.86
2022-09-15T00:40:49.602Z,4.25
2022-09-15T00:43:18.602Z,3.89
2022-09-15T00:45:46.171Z,3.65
2022-09-15T00:48:22.470Z,4.02
2022-09-15T00:50:56.385Z,3.97
2022-09-15T00:53:26.137Z,4.04
2022-09-15T00:55:55.801Z,4.04
2022-09-15T00:58:36.388Z,4.06
2022-09-15T01:01:08.107Z,3.88
2022-09-15T01:03:36.788Z,3.89
2022-09-15T01:06:08.434Z,3.87
2022-09-15T01:08:48.969Z,3.88
2022-09-15T01:11:17.097Z,3.99
2022-09-15T01:13:44.625Z,3.94
2022-09-15T01:16:22.505Z,4.16
2022-09-15T01:18:50.110Z,3.76
2022-09-15T01:21:26.720Z,4.45
2022-09-15T01:24:12.868Z,4.12
2022-09-15T01:26:42.327Z,4.14
2022-09-15T01:29:22.093Z,4.63
2022-09-15T01:32:22.090Z,4.44
2022-09-15T01:35:22.318Z,4.05
2022-09-15T01:37:56.451Z,4.21
2022-09-15T01:40:29.199Z,4.85
2022-09-15T01:42:58.818Z,5.80
2022-09-15T01:45:29.802Z,4.78
2022-09-15T01:47:59.573Z,4.47
2022-09-15T01:50:34.010Z,4.71
2022-09-15T01:53:05.308Z,4.98
2022-09-15T01:55:40.761Z,4.77
2022-09-15T01:58:09.167Z,4.76
2022-09-15T02:00:45.416Z,4.95
2022-09-15T02:03:27.130Z,4.53
2022-09-15T02:06:02.890Z,4.84
2022-09-15T02:08:54.704Z,5.05
2022-09-15T02:11:28.187Z,4.87
2022-09-15T02:14:11.308Z,5.16
2022-09-15T02:16:43.676Z,4.80
2022-09-15T02:19:34.238Z,4.99
2022-09-15T02:22:21.000Z,4.85
2022-09-15T02:24:55.004Z,4.60
2022-09-15T02:27:28.076Z,4.94
2022-09-15T02:30:00.458Z,4.93
2022-09-15T02:32:29.589Z,5.10
2022-09-15T02:34:59.631Z,5.12
2022-09-15T02:37:27.463Z,5.08
2022-09-15T02:39:59.553Z,4.68
2022-09-15T02:42:28.508Z,4.86
2022-09-15T02:44:56.941Z,4.59
2022-09-15T02:47:24.676Z,4.86
2022-09-15T02:49:52.133Z,4.37
2022-09-15T02:52:20.518Z,4.61
2022-09-15T02:54:48.155Z,4.48
2022-09-15T02:57:15.717Z,4.46
2022-09-15T03:00:01.604Z,4.30
2022-09-15T03:02:29.847Z,4.77
2022-09-15T03:04:57.342Z,4.81
2022-09-15T03:07:25.466Z,4.44
2022-09-15T03:09:53.015Z,4.79
2022-09-15T03:12:20.678Z,4.62
2022-09-15T03:14:48.218Z,4.52
2022-09-15T03:17:16.060Z,4.76
2022-09-15T03:19:44.045Z,4.97
2022-09-15T03:22:11.701Z,5.18
2022-09-15T03:24:39.312Z,5.19
2022-09-15T03:27:06.870Z,5.02
2022-09-15T03:29:34.852Z,4.96
2022-09-15T03:32:02.899Z,4.82
2022-09-15T03:34:30.416Z,4.95
2022-09-15T03:36:58.177Z,5.11
2022-09-15T03:39:25.733Z,5.10
2022-09-15T03:41:53.430Z,4.96
2022-09-15T03:44:21.069Z,4.91
2022-09-15T03:46:48.646Z,4.82
2022-09-15T03:49:16.123Z,4.84
2022-09-15T03:51:43.690Z,4.80
2022-09-15T03:54:11.509Z,4.79
2022-09-15T03:56:39.078Z,4.72
2022-09-15T03:59:06.627Z,4.59
2022-09-15T04:01:34.461Z,4.73
2022-09-15T04:04:02.156Z,4.94
2022-09-15T04:06:29.722Z,5.03
2022-09-15T04:09:00.124Z,4.55
2022-09-15T04:11:27.851Z,4.64
2022-09-15T04:13:55.529Z,4.44
2022-09-15T04:16:24.715Z,4.27
2022-09-15T04:18:52.928Z,4.41
2022-09-15T04:21:22.119Z,3.81
2022-09-15T04:23:50.075Z,3.70
2022-09-15T04:26:21.857Z,3.48
2022-09-15T04:28:49.400Z,3.12
2022-09-15T04:31:18.367Z,3.06
2022-09-15T04:33:46.628Z,3.19
2022-09-15T04:36:16.332Z,3.23
2022-09-15T04:38:44.624Z,3.27
2022-09-15T04:41:13.100Z,3.15
2022-09-15T04:43:41.470Z,3.15
2022-09-15T04:46:09.627Z,3.42
2022-09-15T04:48:38.509Z,3.50
2022-09-15T04:51:11.937Z,3.55
2022-09-15T04:53:39.938Z,3.82
2022-09-15T04:56:12.375Z,3.72
2022-09-15T04:58:41.509Z,3.68
2022-09-15T05:01:11.350Z,3.34
2022-09-15T05:03:39.557Z,3.46
2022-09-15T05:06:09.045Z,3.40
2022-09-15T05:08:37.036Z,3.44
2022-09-15T05:11:06.264Z,3.49
2022-09-15T05:13:34.924Z,3.67
2022-09-15T05:16:12.045Z,3.60
2022-09-15T05:18:41.245Z,3.82
2022-09-15T05:21:10.785Z,3.75
2022-09-15T05:23:39.589Z,3.74
2022-09-15T05:26:08.710Z,3.81
2022-09-15T05:28:37.087Z,4.39
2022-09-15T05:31:12.087Z,4.38
2022-09-15T05:33:40.496Z,4.35
2022-09-15T05:36:08.316Z,3.66
2022-09-15T05:38:35.847Z,3.88
2022-09-15T05:41:03.800Z,4.31
2022-09-15T05:43:32.896Z,4.17
2022-09-15T05:46:00.747Z,4.17
2022-09-15T05:48:29.231Z,4.05
2022-09-15T05:50:57.447Z,4.13
2022-09-15T05:53:25.706Z,5.21
2022-09-15T05:55:58.188Z,5.42
2022-09-15T05:58:26.120Z,4.54
2022-09-15T06:00:53.926Z,4.66
2022-09-15T06:03:27.417Z,4.61
2022-09-15T06:06:01.086Z,4.55
2022-09-15T06:08:36.581Z,4.54
2022-09-15T06:11:09.136Z,4.42
2022-09-15T06:13:36.798Z,4.55
2022-09-15T06:16:06.086Z,4.41
2022-09-15T06:18:35.461Z,4.46
2022-09-15T06:21:04.026Z,4.54
2022-09-15T06:23:32.411Z,4.98
2022-09-15T06:26:19.395Z,4.79
2022-09-15T06:28:48.409Z,4.46
2022-09-15T06:31:16.261Z,4.69
2022-09-15T06:33:45.571Z,4.35
2022-09-15T06:36:14.933Z,4.53
2022-09-15T06:38:43.306Z,4.49
2022-09-15T06:41:11.885Z,4.70
2022-09-15T06:43:40.206Z,4.47
2022-09-15T06:46:16.129Z,4.24
2022-09-15T06:48:47.514Z,4.43
2022-09-15T06:51:17.413Z,4.15
2022-09-15T06:53:45.379Z,4.19
2022-09-15T06:56:15.303Z,4.07
2022-09-15T06:58:43.553Z,3.85
2022-09-15T07:01:13.261Z,3.94
2022-09-15T07:03:42.816Z,3.88
2022-09-15T07:06:13.962Z,3.91
2022-09-15T07:08:41.834Z,3.78
2022-09-15T07:11:10.194Z,3.59
2022-09-15T07:13:38.612Z,3.91
2022-09-15T07:16:08.976Z,4.16
2022-09-15T07:18:42.304Z,4.07
2022-09-15T07:21:28.656Z,3.90
2022-09-15T07:23:57.453Z,3.82
2022-09-15T07:26:26.655Z,3.80
2022-09-15T07:28:58.783Z,3.67
2022-09-15T07:31:28.127Z,3.74
2022-09-15T07:33:56.046Z,3.63
2022-09-15T07:36:23.589Z,3.83
2022-09-15T07:38:51.561Z,4.17
2022-09-15T07:41:20.831Z,4.30
2022-09-15T07:43:49.732Z,3.87
2022-09-15T07:46:18.184Z,3.76
2022-09-15T07:48:46.712Z,3.28
2022-09-15T07:51:15.146Z,3.46
2022-09-15T07:53:43.034Z,3.30
2022-09-15T07:56:10.681Z,3.28
2022-09-15T07:58:38.267Z,3.26
2022-09-15T08:01:07.535Z,2.94
2022-09-15T08:03:35.074Z,2.16
2022-09-15T08:06:03.627Z,1.99
2022-09-15T08:08:31.215Z,2.00
2022-09-15T08:10:58.734Z,2.06
2022-09-15T08:13:26.204Z,2.12
2022-09-15T08:15:53.857Z,2.27
2022-09-15T08:18:21.757Z,2.43
2022-09-15T08:20:49.283Z,1.78
2022-09-15T08:23:16.878Z,2.12
2022-09-15T08:25:44.361Z,2.02
2022-09-15T08:28:11.975Z,2.33
2022-09-15T08:30:39.456Z,2.09
2022-09-15T08:33:07.042Z,2.09
2022-09-15T08:35:36.882Z,2.68
2022-09-15T08:38:04.589Z,2.35
2022-09-15T08:40:35.289Z,2.48
2022-09-15T08:43:14.121Z,1.81
2022-09-15T08:45:55.904Z,1.83
2022-09-15T08:48:28.014Z,1.96
2022-09-15T08:51:00.406Z,1.59
2022-09-15T08:53:33.608Z,1.94
2022-09-15T08:56:09.326Z,1.81
2022-09-15T08:58:37.866Z,2.06
2022-09-15T09:01:15.671Z,2.06
2022-09-15T09:03:43.188Z,2.18
2022-09-15T09:06:10.731Z,1.79
2022-09-15T09:08:48.268Z,1.84
2022-09-15T09:11:28.054Z,2.23
2022-09-15T09:13:59.133Z,2.14
2022-09-15T09:16:41.851Z,2.65
2022-09-15T09:19:22.349Z,2.52
2022-09-15T09:21:54.943Z,2.29
2022-09-15T09:24:34.320Z,2.07
2022-09-15T09:27:02.338Z,2.08
2022-09-15T09:29:38.275Z,2.16
2022-09-15T09:32:26.239Z,2.15
2022-09-15T09:35:16.601Z,2.76
2022-09-15T09:37:44.929Z,2.43
2022-09-15T09:40:14.571Z,2.64
2022-09-15T09:42:43.836Z,2.63
2022-09-15T09:45:16.294Z,2.75
2022-09-15T09:47:44.145Z,2.35
2022-09-15T09:50:31.067Z,2.62
2022-09-15T09:52:59.661Z,2.27
2022-09-15T09:55:28.134Z,2.10
2022-09-15T09:58:11.628Z,2.33
2022-09-15T10:00:40.574Z,2.34
2022-09-15T10:03:18.625Z,2.48
2022-09-15T10:06:01.114Z,3.55
2022-09-15T10:08:28.930Z,3.41
2022-09-15T10:11:05.310Z,2.47
2022-09-15T10:13:35.825Z,2.15
2022-09-15T10:16:06.319Z,1.97
2022-09-15T10:18:38.808Z,2.42
2022-09-15T10:21:09.628Z,2.38
2022-09-15T10:23:37.343Z,2.49
2022-09-15T10:26:33.735Z,2.33
2022-09-15T10:29:12.741Z,2.35
2022-09-15T10:31:41.188Z,2.05
2022-09-15T10:34:25.409Z,1.76
2022-09-15T10:36:59.615Z,2.18
2022-09-15T10:39:40.448Z,1.84
2022-09-15T10:42:16.902Z,2.13
2022-09-15T10:44:44.474Z,1.94
2022-09-15T10:47:14.876Z,1.95
2022-09-15T10:49:48.171Z,1.88
2022-09-15T10:52:28.969Z,1.69
2022-09-15T10:55:02.694Z,1.91
2022-09-15T10:57:45.642Z,1.74
2022-09-15T11:00:30.130Z,1.97
2022-09-15T11:03:09.057Z,1.82
2022-09-15T11:05:36.677Z,1.87
2022-09-15T11:08:27.797Z,1.91
2022-09-15T11:11:15.541Z,1.94
2022-09-15T11:14:04.741Z,1.97
2022-09-15T11:16:35.385Z,2.03
2022-09-15T11:19:18.109Z,1.87
2022-09-15T11:21:49.364Z,1.89
2022-09-15T11:24:25.857Z,1.87
2022-09-15T11:27:02.181Z,2.13
2022-09-15T11:29:33.762Z,2.19
2022-09-15T11:32:12.506Z,2.14
2022-09-15T11:34:49.531Z,2.24
2022-09-15T11:37:20.977Z,2.25
2022-09-15T11:40:11.643Z,2.15
2022-09-15T11:42:45.846Z,2.12
2022-09-15T11:45:25.513Z,5.73
2022-09-15T11:48:06.073Z,4.96
2022-09-15T11:50:37.802Z,3.37
2022-09-15T11:53:16.633Z,2.75
2022-09-15T11:55:55.987Z,2.57
2022-09-15T11:58:42.260Z,2.90
2022-09-15T12:01:18.033Z,2.70
2022-09-15T12:03:52.896Z,2.92
2022-09-15T12:06:27.737Z,2.69
2022-09-15T12:09:02.998Z,4.21
2022-09-15T12:11:32.771Z,5.69
2022-09-15T12:14:03.297Z,3.37
2022-09-15T12:16:31.852Z,3.61
2022-09-15T12:19:06.981Z,3.03
2022-09-15T12:21:46.434Z,2.66
2022-09-15T12:24:14.001Z,2.71
2022-09-15T12:26:43.439Z,2.37
2022-09-15T12:29:26.393Z,5.16
2022-09-15T12:32:13.848Z,4.64
2022-09-15T12:34:55.463Z,2.46
2022-09-15T12:37:25.524Z,2.55
2022-09-15T12:39:54.172Z,2.94
2022-09-15T12:42:23.998Z,2.81
2022-09-15T12:44:56.988Z,2.98
2022-09-15T12:47:31.960Z,3.26
2022-09-15T12:50:07.247Z,3.13
2022-09-15T12:52:43.714Z,2.86
2022-09-15T12:55:19.099Z,2.50
2022-09-15T12:57:51.966Z,2.11
2022-09-15T13:00:20.044Z,2.04
2022-09-15T13:02:49.302Z,2.09
2022-09-15T13:05:37.139Z,2.33
2022-09-15T13:08:10.999Z,2.17
2022-09-15T13:10:42.341Z,2.32
2022-09-15T13:13:15.177Z,2.50
2022-09-15T13:15:45.824Z,2.38
2022-09-15T13:18:16.156Z,2.57
2022-09-15T13:20:51.989Z,2.37
2022-09-15T13:23:25.025Z,2.44
2022-09-15T13:25:56.698Z,1.85
2022-09-15T13:28:25.316Z,1.77
2022-09-15T13:30:58.879Z,1.75
2022-09-15T13:36:26.627Z,1.24
2022-09-15T13:39:00.129Z,1.37
2022-09-15T13:41:27.984Z,1.53
2022-09-15T13:43:58.334Z,1.50
2022-09-15T13:46:39.005Z,1.34
2022-09-15T13:49:24.822Z,1.77
2022-09-15T13:51:59.671Z,2.90
2022-09-15T13:54:27.221Z,2.28
2022-09-15T13:56:59.233Z,1.79
2022-09-15T13:59:32.744Z,1.86
2022-09-15T14:02:00.796Z,2.07
2022-09-15T14:04:31.147Z,4.70
2022-09-15T14:07:01.814Z,3.31
2022-09-15T14:09:55.989Z,2.36
2022-09-15T14:12:23.600Z,2.65
2022-09-15T14:14:55.406Z,2.36
2022-09-15T14:17:24.809Z,1.98
2022-09-15T14:19:54.025Z,2.20
2022-09-15T14:22:21.858Z,1.95
2022-09-15T14:24:50.807Z,2.43
2022-09-15T14:27:24.343Z,1.76
2022-09-15T14:29:57.713Z,1.68
2022-09-15T14:32:27.978Z,1.95
2022-09-15T14:34:59.951Z,1.92
2022-09-15T14:37:31.462Z,1.78
2022-09-15T14:40:00.669Z,1.66
2022-09-15T14:42:32.328Z,1.57
2022-09-15T14:48:01.283Z,1.75
2022-09-15T14:50:33.286Z,2.04
2022-09-15T14:53:14.160Z,2.06
2022-09-15T14:56:04.325Z,2.03
2022-09-15T14:58:38.776Z,2.18
2022-09-15T15:01:20.995Z,1.93
2022-09-15T15:04:03.045Z,2.69
2022-09-15T15:06:35.219Z,2.21
2022-09-15T15:09:09.396Z,1.99
2022-09-15T15:11:39.624Z,2.55
2022-09-15T15:14:09.034Z,2.12
2022-09-15T15:16:36.639Z,2.28
2022-09-15T15:19:04.383Z,3.07
2022-09-15T15:21:37.910Z,2.26
2022-09-15T15:24:14.706Z,2.39
2022-09-15T15:26:43.913Z,2.08
2022-09-15T15:29:30.413Z,2.18
2022-09-15T15:32:05.195Z,4.71
2022-09-15T15:34:33.201Z,4.14
2022-09-15T15:37:07.160Z,2.80
2022-09-15T15:39:34.938Z,2.96
2022-09-15T15:42:05.177Z,2.95
2022-09-15T15:44:33.238Z,3.89
2022-09-15T15:47:02.718Z,2.72
2022-09-15T15:49:32.653Z,3.98
2022-09-15T15:52:01.742Z,2.19
2022-09-15T15:54:29.520Z,1.74
2022-09-15T15:57:04.531Z,2.36
2022-09-15T15:59:32.186Z,2.44
2022-09-15T16:01:59.808Z,3.55
2022-09-15T16:04:27.432Z,5.14
2022-09-15T16:06:55.048Z,3.90
2022-09-15T16:09:22.645Z,2.30
2022-09-15T16:11:50.869Z,4.02
2022-09-15T16:14:19.188Z,2.10
2022-09-15T16:16:47.129Z,1.65
2022-09-15T16:19:15.734Z,2.10
2022-09-15T16:21:45.716Z,3.27
2022-09-15T16:24:14.781Z,2.67
2022-09-15T16:26:42.774Z,1.70
2022-09-15T16:29:11.071Z,1.86
2022-09-15T16:31:39.164Z,1.90
2022-09-15T16:34:09.746Z,2.33
2022-09-15T16:36:37.298Z,2.32
2022-09-15T16:39:04.860Z,2.40
2022-09-15T16:41:38.484Z,2.24
2022-09-15T16:44:16.394Z,2.04
2022-09-15T16:46:44.642Z,1.95
2022-09-15T16:49:12.274Z,1.94
2022-09-15T16:51:39.874Z,1.99
2022-09-15T16:54:18.230Z,1.86
2022-09-15T16:56:46.276Z,2.02
2022-09-15T16:59:13.845Z,1.82
2022-09-15T17:01:41.533Z,1.80
2022-09-15T17:04:13.111Z,1.95
2022-09-15T17:06:40.754Z,1.96
2022-09-15T17:09:08.292Z,1.93
2022-09-15T17:11:35.862Z,1.83
2022-09-15T17:14:03.740Z,1.74
2022-09-15T17:16:31.237Z,1.89
2022-09-15T17:18:59.091Z,1.93
2022-09-15T17:21:27.280Z,3.38
2022-09-15T17:23:54.849Z,3.31
2022-09-15T17:26:27.631Z,2.85
2022-09-15T17:28:58.941Z,2.72
2022-09-15T17:31:27.841Z,2.08
2022-09-15T17:33:55.762Z,2.29
2022-09-15T17:36:23.336Z,2.36
2022-09-15T17:38:51.906Z,2.96
2022-09-15T17:41:20.344Z,2.72
2022-09-15T17:43:48.198Z,1.81
2022-09-15T17:46:15.818Z,2.05
2022-09-15T17:48:43.954Z,1.90
2022-09-15T17:51:15.128Z,1.71
2022-09-15T17:53:42.862Z,1.87
2022-09-15T17:56:10.434Z,1.83
2022-09-15T17:58:38.043Z,2.08
2022-09-15T18:01:05.703Z,5.87
2022-09-15T18:03:35.266Z,6.74
2022-09-15T18:06:05.298Z,3.86
2022-09-15T18:08:33.953Z,2.35
2022-09-15T18:11:02.087Z,2.31
2022-09-15T18:13:30.347Z,2.49
2022-09-15T18:16:03.026Z,1.90
2022-09-15T18:18:30.605Z,1.95
2022-09-15T18:20:58.525Z,2.01
2022-09-15T18:23:31.121Z,1.99
2022-09-15T18:25:58.867Z,1.80
2022-09-15T18:28:26.638Z,1.89
2022-09-15T18:30:55.476Z,3.77
2022-09-15T18:33:25.046Z,4.91
2022-09-15T18:35:55.476Z,2.29
2022-09-15T18:38:23.774Z,2.17
2022-09-15T18:40:56.553Z,2.43
2022-09-15T18:43:26.312Z,2.16
2022-09-15T18:46:00.610Z,1.90
2022-09-15T18:48:28.229Z,1.85
2022-09-15T18:50:57.141Z,2.07
2022-09-15T18:53:24.718Z,1.99
2022-09-15T18:55:52.365Z,1.52
2022-09-15T18:58:20.985Z,1.26
2022-09-15T19:00:50.062Z,1.70
2022-09-15T19:03:18.383Z,1.22
2022-09-15T19:05:46.319Z,1.70
2022-09-15T19:08:13.982Z,1.64
2022-09-15T19:10:44.120Z,1.65
2022-09-15T19:13:14.063Z,1.97
2022-09-15T19:15:43.909Z,1.71
2022-09-15T19:18:11.710Z,1.71
2022-09-15T19:20:40.309Z,1.82
2022-09-15T19:23:08.019Z,1.64
2022-09-15T19:25:35.905Z,1.69
2022-09-15T19:28:03.735Z,1.74
2022-09-15T19:30:31.378Z,1.72
2022-09-15T19:32:59.088Z,1.61
2022-09-15T19:35:27.234Z,1.53
2022-09-15T19:37:54.991Z,3.29
2022-09-15T19:40:23.863Z,2.09
2022-09-15T19:42:51.553Z,1.83
2022-09-15T19:45:19.085Z,1.88
2022-09-15T19:47:46.792Z,1.77
2022-09-15T19:50:14.809Z,1.79
2022-09-15T19:52:42.741Z,1.92
2022-09-15T19:55:12.052Z,1.83
2022-09-15T19:57:40.714Z,1.99
2022-09-15T20:00:09.654Z,2.09
2022-09-15T20:02:37.605Z,4.07
2022-09-15T20:05:06.974Z,3.21
2022-09-15T20:07:35.543Z,2.19
2022-09-15T20:10:03.517Z,2.83
2022-09-15T20:12:31.313Z,2.25
2022-09-15T20:14:59.190Z,2.49
2022-09-15T20:17:27.081Z,2.76
2022-09-15T20:19:55.145Z,2.81
2022-09-15T20:22:23.739Z,2.44
2022-09-15T20:24:51.682Z,2.62
2022-09-15T20:27:19.223Z,2.68
2022-09-15T20:29:46.909Z,6.54
2022-09-15T20:32:15.157Z,3.47
2022-09-15T20:34:42.840Z,3.16
2022-09-15T20:37:11.010Z,3.21
2022-09-15T20:39:38.941Z,3.42
2022-09-15T20:42:06.542Z,3.43
2022-09-15T20:44:34.126Z,3.37
2022-09-15T20:47:01.706Z,3.34
2022-09-15T20:49:29.229Z,3.55
2022-09-15T20:51:56.836Z,3.53
2022-09-15T20:54:25.262Z,3.48
2022-09-15T20:56:52.899Z,3.77
2022-09-15T20:59:20.410Z,3.73
2022-09-15T21:01:47.989Z,3.58
2022-09-15T21:04:15.842Z,3.61
2022-09-15T21:06:43.354Z,3.83
2022-09-15T21:09:11.063Z,3.80
2022-09-15T21:11:39.767Z,3.93
2022-09-15T21:14:07.568Z,3.95
2022-09-15T21:16:35.891Z,4.88
2022-09-15T21:19:04.278Z,4.45
2022-09-15T21:21:33.287Z,4.42
2022-09-15T21:24:03.866Z,4.62
2022-09-15T21:26:33.869Z,5.15
2022-09-15T21:29:01.950Z,4.29
2022-09-15T21:31:31.983Z,4.60
2022-09-15T21:34:00.148Z,4.37
2022-09-15T21:36:29.857Z,4.43
2022-09-15T21:38:58.270Z,4.25
2022-09-15T21:41:27.643Z,4.76
2022-09-15T21:43:55.894Z,4.88
2022-09-15T21:46:24.920Z,4.56
2022-09-15T21:48:52.962Z,4.45
2022-09-15T21:51:24.523Z,4.88
2022-09-15T21:53:53.918Z,4.53
2022-09-15T21:56:23.066Z,4.66
2022-09-15T21:58:51.267Z,4.81
2022-09-15T22:01:20.672Z,4.75
2022-09-15T22:03:51.920Z,5.02
2022-09-15T22:06:20.970Z,5.20
2022-09-15T22:08:49.042Z,5.24
2022-09-15T22:11:17.225Z,5.12
2022-09-15T22:13:44.852Z,5.41
2022-09-15T22:16:15.514Z,5.19
2022-09-15T22:18:44.338Z,5.09
2022-09-15T22:21:13.457Z,5.28
2022-09-15T22:23:42.038Z,5.21
2022-09-15T22:26:15.147Z,5.19
2022-09-15T22:28:43.054Z,7.15
2022-09-15T22:31:11.666Z,6.08
2022-09-15T22:33:41.269Z,5.20
2022-09-15T22:36:12.799Z,4.81
2022-09-15T22:38:40.870Z,5.14
2022-09-15T22:41:09.735Z,4.98
2022-09-15T22:43:37.398Z,5.38
2022-09-15T22:46:05.550Z,5.04
2022-09-15T22:48:33.809Z,5.35
2022-09-15T22:51:01.820Z,5.14
2022-09-15T22:53:29.565Z,4.97
2022-09-15T22:56:23.346Z,5.30
2022-09-15T22:58:52.315Z,4.83
2022-09-15T23:01:24.217Z,4.48
2022-09-15T23:03:53.794Z,4.61
2022-09-15T23:06:22.841Z,4.50
2022-09-15T23:08:51.378Z,4.75
2022-09-15T23:11:19.156Z,4.65
2022-09-15T23:13:46.769Z,4.47
2022-09-15T23:16:14.315Z,4.35
2022-09-15T23:18:42.814Z,4.70
2022-09-15T23:21:11.242Z,4.44
2022-09-15T23:23:40.904Z,4.63
2022-09-15T23:26:11.150Z,5.22
2022-09-15T23:28:39.295Z,5.78
2022-09-15T23:31:07.788Z,5.64
2022-09-15T23:33:35.803Z,5.40
2022-09-15T23:36:04.989Z,5.76
2022-09-15T23:38:35.981Z,5.83
2022-09-15T23:41:03.727Z,5.61
2022-09-15T23:43:33.191Z,5.84
2022-09-15T23:46:01.343Z,5.85
2022-09-15T23:48:31.563Z,5.49
2022-09-15T23:50:59.222Z,5.46
2022-09-15T23:53:26.824Z,5.60
2022-09-15T23:55:54.370Z,5.62
2022-09-15T23:58:22.049Z,5.62
